Time;durP1;ratioP1;P1;durP2;ratioP2;P2;SDS_P1;SDS_P2;PMS_P1;PMS_P2;Temp;Humidity;BMP_temperature;BMP_pressure;BME280_temperature;BME280_humidity;BME280_pressure;Samples;Min_cycle;Max_cycle;Signal;HPM_P1;HPM_P2
2022/06/30 00:02:10;;;;;;;4.67;1.70;;;;;;;24.09;54.11;98767.31;6039477;23;20154;-89
2022/06/30 00:04:36;;;;;;;3.27;1.63;;;;;;;24.07;54.63;98777.34;6039864;23;20181;-89
2022/06/30 00:07:02;;;;;;;4.43;1.77;;;;;;;24.07;54.56;98777.34;6039279;23;20578;-89
2022/06/30 00:09:28;;;;;;;4.23;1.57;;;;;;;24.08;54.56;98776.34;6039361;23;20193;-89
2022/06/30 00:11:54;;;;;;;4.17;1.77;;;;;;;24.10;54.82;98772.53;6040568;23;20154;-90
2022/06/30 00:14:19;;;;;;;5.60;1.97;;;;;;;24.10;54.04;98771.69;6039927;23;20150;-89
2022/06/30 00:16:45;;;;;;;3.37;1.37;;;;;;;24.05;53.79;98774.88;6039891;23;20181;-89
2022/06/30 00:19:10;;;;;;;4.07;1.63;;;;;;;24.09;53.93;98775.38;6015037;23;20575;-89
2022/06/30 00:21:36;;;;;;;6.13;1.83;;;;;;;24.12;53.73;98769.66;6039865;23;20224;-89
2022/06/30 00:24:01;;;;;;;3.70;1.50;;;;;;;24.14;54.55;98776.50;6040161;23;20161;-89
2022/06/30 00:26:27;;;;;;;4.97;1.87;;;;;;;24.13;53.73;98764.16;6040090;23;20154;-89
2022/06/30 00:28:52;;;;;;;3.57;1.97;;;;;;;24.23;54.12;98771.97;6039720;23;20188;-88
2022/06/30 00:31:18;;;;;;;8.87;2.13;;;;;;;24.26;53.76;98772.44;6039657;23;20586;-89
2022/06/30 00:33:44;;;;;;;3.83;1.83;;;;;;;24.18;54.00;98775.16;6039536;23;20154;-89
2022/06/30 00:36:09;;;;;;;5.57;1.67;;;;;;;24.27;53.51;98774.09;6014656;23;20545;-89
2022/06/30 00:38:34;;;;;;;3.10;1.97;;;;;;;24.35;53.44;98773.22;6039973;23;20571;-88
2022/06/30 00:41:00;;;;;;;3.83;1.90;;;;;;;24.38;53.13;98775.53;6039367;23;20158;-90
2022/06/30 00:43:26;;;;;;;8.37;2.00;;;;;;;24.38;53.08;98781.75;6039617;23;20158;-88
2022/06/30 00:45:51;;;;;;;7.97;2.37;;;;;;;24.42;52.78;98780.38;6039277;23;20150;-89
2022/06/30 00:48:18;;;;;;;6.23;1.93;;;;;;;24.40;52.97;98777.03;6039173;23;20530;-89
2022/06/30 00:50:44;;;;;;;7.43;2.17;;;;;;;24.45;52.87;98773.81;6039401;23;20177;-88
2022/06/30 00:53:11;;;;;;;5.53;2.20;;;;;;;24.43;53.25;98770.50;6059183;23;20169;-89
2022/06/30 00:55:37;;;;;;;7.63;2.40;;;;;;;24.48;52.48;98769.94;6042644;23;20160;-88
2022/06/30 00:58:05;;;;;;;5.53;2.07;;;;;;;24.55;52.43;98774.44;6067869;23;20149;-89
2022/06/30 01:00:39;;;;;;;4.70;2.13;;;;;;;24.53;52.11;98768.41;6042670;23;20157;-89
2022/06/30 01:03:09;;;;;;;5.97;2.30;;;;;;;24.60;51.82;98768.53;6042758;23;20271;-89
2022/06/30 01:05:35;;;;;;;3.50;1.80;;;;;;;24.60;51.99;98764.03;6067467;23;20149;-89
2022/06/30 01:08:04;;;;;;;4.93;2.23;;;;;;;24.59;51.86;98764.19;6067795;23;20164;-89
2022/06/30 01:13:14;;;;;;;8.53;3.53;;;;;;;24.52;52.18;98765.91;6068024;23;20157;-89
2022/06/30 01:15:40;;;;;;;4.00;1.73;;;;;;;24.50;51.67;98767.94;6067647;23;20150;-89
2022/06/30 01:18:05;;;;;;;4.37;2.47;;;;;;;24.57;51.37;98769.75;6067619;23;20149;-88
2022/06/30 01:20:33;;;;;;;6.73;1.83;;;;;;;24.51;51.38;98769.59;6067354;23;20480;-89
2022/06/30 01:23:01;;;;;;;3.83;2.10;;;;;;;24.57;50.92;98761.69;6043071;23;20160;-89
2022/06/30 01:25:26;;;;;;;5.37;2.00;;;;;;;24.61;50.08;98754.97;6042630;23;20554;-90
2022/06/30 01:27:53;;;;;;;4.30;1.80;;;;;;;24.64;50.43;98764.47;6042875;23;20204;-89
2022/06/30 01:30:18;;;;;;;3.00;1.70;;;;;;;24.48;50.73;98765.44;6067685;23;20215;-89
2022/06/30 01:32:44;;;;;;;8.53;2.43;;;;;;;24.55;50.25;98768.25;6042626;23;20187;-89
2022/06/30 01:35:10;;;;;;;4.20;2.10;;;;;;;24.62;50.36;98772.72;6067630;23;20156;-89
2022/06/30 01:37:56;;;;;;;5.07;1.83;;;;;;;24.65;50.14;98766.16;6067631;23;20157;-90
2022/06/30 01:40:23;;;;;;;4.50;1.83;;;;;;;24.66;50.11;98767.84;6042116;23;20195;-90
2022/06/30 01:42:49;;;;;;;2.87;1.47;;;;;;;24.75;49.73;98772.97;6042770;23;20492;-90
2022/06/30 01:45:15;;;;;;;8.63;2.07;;;;;;;24.70;49.70;98772.66;6042809;23;20250;-90
2022/06/30 01:47:41;;;;;;;4.13;2.13;;;;;;;24.66;49.99;98781.25;6067482;23;20569;-89
2022/06/30 01:50:12;;;;;;;5.67;2.50;;;;;;;24.76;49.69;98777.31;6066522;23;20653;-89
2022/06/30 01:52:37;;;;;;;4.07;1.50;;;;;;;24.79;49.33;98785.00;6067288;23;20181;-89
2022/06/30 01:55:03;;;;;;;3.03;1.67;;;;;;;24.83;49.20;98786.34;6043323;23;20161;-89
2022/06/30 01:57:29;;;;;;;5.10;1.80;;;;;;;24.86;49.33;98782.47;6042302;23;20157;-89
2022/06/30 01:59:54;;;;;;;4.20;1.33;;;;;;;24.85;49.21;98778.09;6067453;23;20145;-90
2022/06/30 02:02:20;;;;;;;3.87;2.20;;;;;;;25.03;48.58;98779.47;6067518;23;20153;-90
2022/06/30 02:04:48;;;;;;;3.27;1.87;;;;;;;25.02;48.49;98777.81;6067155;23;20177;-89
2022/06/30 02:07:18;;;;;;;4.30;1.90;;;;;;;24.98;48.85;98783.69;6067530;23;20160;-89
2022/06/30 02:09:44;;;;;;;6.43;2.10;;;;;;;25.02;48.70;98774.28;6042381;23;20192;-89
2022/06/30 02:13:10;;;;;;;3.90;1.37;;;;;;;25.03;48.66;98774.09;6067506;23;20487;-89
2022/06/30 02:15:06;;;;;;;2.93;1.47;;;;;;;25.02;48.60;98775.13;6054719;23;20165;-90
2022/06/30 02:17:32;;;;;;;3.70;1.80;;;;;;;24.96;48.57;98778.53;6066322;23;20190;-89
2022/06/30 02:19:57;;;;;;;4.17;1.77;;;;;;;25.04;48.41;98775.78;6067450;23;20145;-89
2022/06/30 02:22:23;;;;;;;3.63;1.70;;;;;;;25.00;48.39;98777.13;6042745;23;20161;-89
2022/06/30 02:24:48;;;;;;;3.13;1.57;;;;;;;24.89;48.64;98780.25;6067242;23;20587;-90
2022/06/30 02:27:14;;;;;;;8.57;1.97;;;;;;;24.87;48.13;98776.91;6067120;23;20180;-90
2022/06/30 02:29:39;;;;;;;2.47;1.47;;;;;;;24.86;47.95;98780.63;6067681;23;20181;-89
2022/06/30 02:32:06;;;;;;;3.30;1.60;;;;;;;24.69;48.54;98778.19;6069308;23;20160;-89
2022/06/30 02:34:31;;;;;;;3.23;1.83;;;;;;;24.73;48.45;98779.50;6069118;23;20157;-89
2022/06/30 02:36:57;;;;;;;5.17;1.73;;;;;;;24.81;48.63;98788.38;6069577;23;20494;-89
2022/06/30 02:39:23;;;;;;;4.50;2.00;;;;;;;24.85;49.27;98778.94;6068701;23;20497;-89
2022/06/30 02:41:49;;;;;;;3.67;1.80;;;;;;;24.82;49.85;98779.28;6068958;23;20590;-89
2022/06/30 02:44:15;;;;;;;2.50;1.50;;;;;;;24.76;50.31;98789.88;6068826;23;20154;-89
2022/06/30 02:46:41;;;;;;;4.77;2.20;;;;;;;24.77;50.26;98787.00;6069191;23;20153;-90
2022/06/30 02:49:07;;;;;;;3.97;1.63;;;;;;;24.75;50.52;98791.72;6068468;23;20339;-90
2022/06/30 02:51:32;;;;;;;2.80;1.60;;;;;;;24.71;50.40;98795.75;6068727;23;20717;-90
2022/06/30 02:53:58;;;;;;;2.17;1.40;;;;;;;24.64;50.83;98797.50;6069399;23;20175;-90
2022/06/30 02:56:24;;;;;;;4.40;1.70;;;;;;;24.67;51.29;98789.09;6069178;23;20161;-89
2022/06/30 02:58:49;;;;;;;5.37;1.67;;;;;;;24.65;51.73;98787.59;6068911;23;20153;-89
2022/06/30 03:01:15;;;;;;;2.77;1.47;;;;;;;24.65;51.71;98791.13;6043778;23;20164;-89
2022/06/30 03:03:40;;;;;;;5.00;1.50;;;;;;;24.63;51.30;98789.63;6068549;23;20153;-89
2022/06/30 03:06:06;;;;;;;4.00;1.90;;;;;;;24.60;51.38;98790.00;6068919;23;20159;-90
2022/06/30 03:08:32;;;;;;;4.53;1.97;;;;;;;24.61;51.38;98794.31;6043706;23;20212;-90
2022/06/30 03:10:58;;;;;;;5.30;1.50;;;;;;;24.63;51.31;98800.34;6068773;23;20177;-90
2022/06/30 03:13:23;;;;;;;5.90;1.90;;;;;;;24.60;50.96;98790.81;6069152;23;20160;-89
2022/06/30 03:15:50;;;;;;;4.33;2.43;;;;;;;24.50;51.22;98794.75;6068462;23;20172;-89
2022/06/30 03:18:15;;;;;;;3.77;1.87;;;;;;;24.43;51.11;98792.75;6067853;23;20156;-90
2022/06/30 03:20:41;;;;;;;3.87;1.80;;;;;;;24.45;51.10;98793.41;6067010;23;20157;-90
2022/06/30 03:23:06;;;;;;;3.03;1.60;;;;;;;24.55;51.33;98793.22;6069165;23;20165;-90
2022/06/30 03:25:32;;;;;;;4.83;2.10;;;;;;;24.65;51.05;98793.81;6068893;23;20165;-90
2022/06/30 03:27:57;;;;;;;3.47;1.80;;;;;;;24.66;51.29;98798.13;6069134;23;20160;-89
2022/06/30 03:30:23;;;;;;;3.97;1.77;;;;;;;24.70;51.11;98793.25;6068785;23;20177;-89
2022/06/30 03:32:48;;;;;;;4.23;2.30;;;;;;;24.64;51.30;98797.50;6069043;23;20224;-89
2022/06/30 03:35:14;;;;;;;4.73;1.90;;;;;;;24.69;51.34;98792.44;6069303;23;20153;-89
2022/06/30 03:37:39;;;;;;;3.17;1.50;;;;;;;24.65;52.31;98788.44;6069090;23;20149;-90
2022/06/30 03:40:05;;;;;;;11.40;2.07;;;;;;;24.61;52.30;98795.16;6068892;23;20159;-89
2022/06/30 03:42:31;;;;;;;4.17;2.20;;;;;;;24.76;51.91;98800.59;6068424;23;20602;-89
2022/06/30 03:44:56;;;;;;;4.63;2.23;;;;;;;24.75;51.79;98804.28;6068837;23;20232;-89
2022/06/30 03:47:22;;;;;;;6.37;2.30;;;;;;;24.81;52.03;98809.81;6044373;23;20240;-89
2022/06/30 03:49:47;;;;;;;5.30;2.60;;;;;;;24.83;52.00;98809.63;6043776;23;20532;-89
2022/06/30 03:52:12;;;;;;;3.53;1.90;;;;;;;24.75;51.77;98810.50;6043491;23;20235;-89
2022/06/30 03:54:38;;;;;;;7.43;2.67;;;;;;;24.72;52.38;98818.03;6067517;23;20518;-89
2022/06/30 03:57:04;;;;;;;4.53;2.10;;;;;;;24.76;52.45;98812.16;6068779;23;20153;-90
2022/06/30 03:59:30;;;;;;;3.47;1.90;;;;;;;24.87;52.25;98811.75;6068552;23;20149;-89
2022/06/30 04:01:55;;;;;;;5.60;2.13;;;;;;;24.88;52.32;98820.66;6068832;23;20479;-89
2022/06/30 04:04:21;;;;;;;3.63;1.87;;;;;;;24.83;52.58;98818.50;6068454;23;20153;-89
2022/06/30 04:06:47;;;;;;;4.73;2.43;;;;;;;24.86;52.81;98828.03;6068501;23;20479;-90
2022/06/30 04:09:12;;;;;;;6.60;2.00;;;;;;;24.97;52.49;98819.59;6043659;23;20188;-89
2022/06/30 04:11:38;;;;;;;6.10;2.53;;;;;;;25.02;52.22;98815.34;6068470;23;20463;-89
2022/06/30 04:14:03;;;;;;;4.83;2.10;;;;;;;25.04;52.23;98809.78;6068750;23;20160;-89
2022/06/30 04:16:29;;;;;;;5.17;2.50;;;;;;;25.07;52.17;98811.28;6043663;23;20579;-88
2022/06/30 04:18:55;;;;;;;5.80;2.43;;;;;;;25.16;52.30;98810.22;6069388;23;20153;-89
2022/06/30 04:21:20;;;;;;;5.00;2.30;;;;;;;25.12;52.10;98814.25;6069070;23;20257;-89
2022/06/30 04:23:46;;;;;;;5.00;1.90;;;;;;;25.07;52.19;98819.34;6068623;23;20634;-90
2022/06/30 04:26:11;;;;;;;3.67;2.03;;;;;;;25.09;52.74;98817.28;6068651;23;20491;-89
2022/06/30 04:28:38;;;;;;;3.77;2.20;;;;;;;25.12;52.29;98808.91;6068440;23;20224;-89
2022/06/30 04:33:47;;;;;;;5.67;1.97;;;;;;;25.38;52.61;98814.69;6068377;23;20176;-89
2022/06/30 04:36:13;;;;;;;3.33;1.70;;;;;;;25.51;52.48;98812.25;6043199;23;20681;-90
2022/06/30 04:38:38;;;;;;;4.57;2.30;;;;;;;25.63;51.82;98816.97;6043383;23;20235;-90
2022/06/30 04:43:48;;;;;;;3.33;2.10;;;;;;;25.55;51.70;98824.31;6068643;23;20144;-90
2022/06/30 04:46:13;;;;;;;3.23;1.77;;;;;;;25.68;51.75;98832.56;6043230;23;20161;-90
2022/06/30 04:48:39;;;;;;;5.40;2.23;;;;;;;25.76;51.03;98829.75;6068243;23;20637;-90
2022/06/30 04:51:04;;;;;;;3.73;1.90;;;;;;;25.79;50.52;98825.88;6068083;23;20633;-90
2022/06/30 04:53:30;;;;;;;3.43;1.70;;;;;;;25.80;50.86;98828.38;6066621;23;20551;-89
2022/06/30 04:55:56;;;;;;;4.53;2.30;;;;;;;25.89;51.21;98826.47;6068546;23;20596;-88
2022/06/30 04:58:21;;;;;;;7.93;2.23;;;;;;;26.02;52.04;98832.81;6068324;23;20168;-89
2022/06/30 05:00:47;;;;;;;2.97;1.80;;;;;;;26.11;51.97;98825.50;6043095;23;20573;-90
2022/06/30 05:03:13;;;;;;;3.97;1.97;;;;;;;26.16;51.67;98837.41;6068070;23;20557;-90
2022/06/30 05:05:38;;;;;;;4.43;2.07;;;;;;;26.26;51.16;98830.91;6068134;23;20153;-90
2022/06/30 05:08:04;;;;;;;6.43;2.83;;;;;;;26.33;51.35;98821.06;6068021;23;20219;-89
2022/06/30 05:10:29;;;;;;;3.97;2.03;;;;;;;26.40;50.45;98824.66;6068172;23;20582;-88
2022/06/30 05:12:55;;;;;;;6.47;2.75;;;;;;;26.37;49.86;98822.34;6068501;23;20184;-87
2022/06/30 05:15:20;;;;;;;5.00;1.83;;;;;;;26.52;50.20;98829.34;6068617;23;20284;-87
2022/06/30 05:17:46;;;;;;;5.90;2.40;;;;;;;26.69;48.95;98832.66;6042926;23;20153;-87
2022/06/30 05:20:11;;;;;;;5.60;2.37;;;;;;;26.75;49.33;98831.91;6068142;23;20215;-87
2022/06/30 05:22:37;;;;;;;3.35;1.58;;;;;;;26.68;48.81;98836.34;6068135;23;20224;-87
2022/06/30 05:27:47;;;;;;;3.22;1.75;;;;;;;26.99;47.64;98846.88;6068023;23;20148;-88
2022/06/30 05:30:16;;;;;;;3.35;2.03;;;;;;;27.25;47.78;98842.56;6068264;23;20181;-88
2022/06/30 05:32:43;;;;;;;4.22;1.83;;;;;;;27.57;46.49;98843.88;6068002;23;20228;-88
2022/06/30 05:35:09;;;;;;;4.38;2.25;;;;;;;27.81;46.71;98843.44;6068183;23;20173;-88
2022/06/30 05:37:34;;;;;;;7.65;2.22;;;;;;;28.02;46.21;98847.97;6043098;23;20640;-88
2022/06/30 05:40:00;;;;;;;4.82;2.50;;;;;;;28.18;46.07;98846.78;6066719;23;20216;-88
2022/06/30 05:42:25;;;;;;;6.28;2.13;;;;;;;28.28;45.56;98850.78;6067782;23;20484;-88
2022/06/30 05:44:50;;;;;;;3.60;1.73;;;;;;;28.24;46.32;98852.25;6067898;23;20161;-88
2022/06/30 05:47:16;;;;;;;3.25;2.35;;;;;;;28.36;46.18;98847.09;6068000;23;20638;-88
2022/06/30 05:49:41;;;;;;;3.58;1.85;;;;;;;28.40;46.31;98851.91;6067591;23;20587;-88
2022/06/30 05:52:07;;;;;;;4.32;2.05;;;;;;;28.61;45.93;98851.81;6042657;23;20180;-88
2022/06/30 05:54:32;;;;;;;3.78;2.30;;;;;;;28.77;46.12;98856.00;6067838;23;20621;-87
2022/06/30 05:56:58;;;;;;;5.10;1.90;;;;;;;28.87;45.71;98863.72;6068105;23;20589;-88
2022/06/30 05:59:23;;;;;;;5.10;2.50;;;;;;;28.78;44.80;98856.81;6067839;23;20290;-87
2022/06/30 06:01:49;;;;;;;4.70;2.08;;;;;;;28.88;44.75;98857.28;6067784;23;20228;-87
2022/06/30 06:04:14;;;;;;;6.65;1.95;;;;;;;29.00;44.33;98864.56;6067937;23;20173;-88
2022/06/30 06:06:40;;;;;;;3.78;2.15;;;;;;;29.05;43.90;98874.75;6070029;23;20153;-87
2022/06/30 06:09:05;;;;;;;5.35;2.53;;;;;;;29.13;44.78;98874.56;6070064;23;20553;-87
2022/06/30 06:11:32;;;;;;;4.53;2.30;;;;;;;29.16;44.30;98877.69;6069769;23;20153;-87
2022/06/30 06:13:58;;;;;;;3.10;1.75;;;;;;;29.33;43.57;98870.03;6069947;23;20494;-88
2022/06/30 06:16:23;;;;;;;6.50;2.78;;;;;;;29.34;44.33;98869.00;6069566;23;20152;-87
2022/06/30 06:18:49;;;;;;;6.50;2.55;;;;;;;29.56;43.41;98873.16;6069605;23;20216;-87
2022/06/30 06:21:14;;;;;;;5.63;2.17;;;;;;;29.80;43.04;98869.88;6069753;23;20228;-88
2022/06/30 06:23:40;;;;;;;3.88;1.73;;;;;;;30.00;42.70;98874.41;6069695;23;20172;-87
2022/06/30 06:26:05;;;;;;;4.85;2.60;;;;;;;30.19;42.61;98865.44;6069336;23;20149;-88
2022/06/30 06:31:15;;;;;;;7.38;3.05;;;;;;;30.38;42.71;98864.56;6070022;23;20156;-88
2022/06/30 06:33:41;;;;;;;5.07;2.50;;;;;;;30.65;41.73;98858.00;6069382;23;20153;-87
2022/06/30 06:36:07;;;;;;;4.10;1.90;;;;;;;30.88;41.24;98858.28;6069706;23;20153;-87
2022/06/30 06:38:32;;;;;;;4.78;2.35;;;;;;;31.26;41.09;98861.00;6069491;23;20153;-87
2022/06/30 06:40:58;;;;;;;4.07;1.98;;;;;;;31.46;40.56;98856.28;6044798;23;20153;-87
2022/06/30 06:43:23;;;;;;;4.82;3.05;;;;;;;31.71;40.20;98858.16;6069850;23;20301;-87
2022/06/30 06:45:49;;;;;;;4.95;1.90;;;;;;;32.06;39.35;98846.56;6069105;23;20149;-87
2022/06/30 06:48:14;;;;;;;3.25;1.98;;;;;;;32.33;39.50;98857.97;6069483;23;20520;-87
2022/06/30 06:50:40;;;;;;;4.38;2.47;;;;;;;32.53;38.49;98853.16;6069821;23;20187;-87
2022/06/30 06:53:05;;;;;;;5.22;2.28;;;;;;;32.68;38.93;98845.44;6069215;23;20548;-87
2022/06/30 06:55:31;;;;;;;4.47;2.63;;;;;;;32.75;37.27;98842.63;6069240;23;20782;-87
2022/06/30 06:57:56;;;;;;;5.70;2.10;;;;;;;32.93;37.54;98841.75;6069302;23;20566;-87
2022/06/30 07:00:22;;;;;;;6.53;2.55;;;;;;;33.09;36.22;98850.13;6069140;23;20633;-86
2022/06/30 07:02:48;;;;;;;6.57;2.50;;;;;;;33.19;35.50;98846.81;6069442;23;20237;-88
2022/06/30 07:05:13;;;;;;;4.00;1.70;;;;;;;33.12;35.47;98846.09;6069334;23;20217;-87
2022/06/30 07:07:39;;;;;;;2.95;1.85;;;;;;;33.26;35.81;98840.22;6069287;23;20514;-88
2022/06/30 07:10:06;;;;;;;3.28;1.77;;;;;;;33.42;34.83;98844.97;6068201;23;20185;-87
2022/06/30 07:12:32;;;;;;;4.40;1.80;;;;;;;33.53;34.59;98842.50;6044215;23;20172;-87
2022/06/30 07:14:58;;;;;;;5.35;1.80;;;;;;;33.68;34.21;98841.00;6069076;23;20164;-88
2022/06/30 07:17:24;;;;;;;5.13;2.15;;;;;;;33.86;33.30;98834.63;6069253;23;20153;-88
2022/06/30 07:19:50;;;;;;;4.15;1.55;;;;;;;33.88;33.45;98844.19;6069185;23;20173;-87
2022/06/30 07:22:17;;;;;;;5.25;1.65;;;;;;;33.80;33.96;98843.75;6069262;23;20149;-87
2022/06/30 07:24:42;;;;;;;3.65;1.92;;;;;;;33.88;33.95;98846.09;6069243;23;20232;-87
2022/06/30 07:27:08;;;;;;;3.10;1.63;;;;;;;33.90;34.24;98843.97;6069012;23;20547;-87
2022/06/30 07:29:33;;;;;;;2.42;1.58;;;;;;;34.09;34.38;98839.25;6069041;23;20173;-88
2022/06/30 07:31:59;;;;;;;3.17;1.80;;;;;;;34.25;33.35;98841.25;6069178;23;20160;-87
2022/06/30 07:34:24;;;;;;;2.63;1.38;;;;;;;34.15;33.25;98838.28;6069175;23;20153;-88
2022/06/30 07:36:50;;;;;;;5.45;1.77;;;;;;;34.20;33.63;98850.09;6043657;23;20173;-88
2022/06/30 07:39:16;;;;;;;5.75;1.77;;;;;;;34.43;32.67;98850.09;6068635;23;20236;-88
2022/06/30 07:41:41;;;;;;;3.67;1.77;;;;;;;34.18;34.75;98854.97;6069118;23;20504;-88
2022/06/30 07:44:07;;;;;;;3.15;1.70;;;;;;;34.46;33.88;98841.41;6069000;23;20177;-88
2022/06/30 07:46:32;;;;;;;3.20;1.50;;;;;;;34.73;33.49;98851.78;6069025;23;20149;-87
2022/06/30 07:48:58;;;;;;;4.65;1.55;;;;;;;34.77;32.85;98845.63;6069237;23;20164;-87
2022/06/30 07:51:23;;;;;;;2.88;1.67;;;;;;;34.98;33.07;98835.94;6069007;23;20284;-87
2022/06/30 07:53:49;;;;;;;2.95;1.55;;;;;;;34.90;31.93;98844.50;6068583;23;20165;-87
2022/06/30 07:56:15;;;;;;;3.58;1.48;;;;;;;35.06;32.58;98841.81;6068996;23;20183;-88
2022/06/30 07:58:41;;;;;;;4.57;1.38;;;;;;;35.15;31.82;98845.81;6068624;23;20154;-88
2022/06/30 08:01:07;;;;;;;4.88;1.27;;;;;;;35.24;31.91;98848.97;6068855;23;20169;-88
2022/06/30 08:03:32;;;;;;;3.33;1.27;;;;;;;35.37;32.33;98845.91;6068770;23;20212;-88
2022/06/30 08:05:58;;;;;;;3.00;1.55;;;;;;;35.48;31.97;98849.66;6069208;23;20149;-88
2022/06/30 08:08:23;;;;;;;6.28;1.58;;;;;;;35.49;32.36;98846.66;6043746;23;20157;-88
2022/06/30 08:10:53;;;;;;;3.50;1.55;;;;;;;35.56;31.99;98852.78;6068943;23;20260;-89
2022/06/30 08:13:18;;;;;;;3.15;1.60;;;;;;;35.62;31.29;98851.81;6068817;23;20251;-88
2022/06/30 08:15:44;;;;;;;2.70;1.65;;;;;;;35.46;33.02;98854.50;6044041;23;20157;-88
2022/06/30 08:18:10;;;;;;;4.90;1.23;;;;;;;35.80;32.05;98849.91;6068279;23;20153;-88
2022/06/30 08:20:35;;;;;;;2.70;1.25;;;;;;;35.51;32.60;98841.78;6068960;23;20156;-88
2022/06/30 08:23:01;;;;;;;2.30;1.20;;;;;;;35.40;32.06;98856.34;6069338;23;20220;-88
2022/06/30 08:25:27;;;;;;;5.15;1.42;;;;;;;35.57;32.54;98843.56;6068682;23;20187;-88
2022/06/30 08:27:53;;;;;;;3.10;1.23;;;;;;;35.66;31.67;98844.81;6067103;23;20157;-88
2022/06/30 08:30:18;;;;;;;1.85;1.08;;;;;;;36.01;31.35;98846.44;6043487;23;20192;-88
2022/06/30 08:32:44;;;;;;;2.85;1.17;;;;;;;35.98;30.89;98846.91;6043598;23;20157;-88
2022/06/30 08:35:10;;;;;;;2.88;1.45;;;;;;;35.77;32.42;98840.31;6068662;23;20236;-88
2022/06/30 08:37:36;;;;;;;7.97;1.40;;;;;;;35.91;31.42;98838.88;6068950;23;20153;-88
2022/06/30 08:42:46;;;;;;;4.10;1.33;;;;;;;35.63;31.81;98833.56;6068824;23;20617;-88
2022/06/30 08:45:19;;;;;;;3.65;1.52;;;;;;;35.94;31.70;98830.19;6068513;23;20158;-88
2022/06/30 08:47:46;;;;;;;3.25;1.40;;;;;;;35.95;30.76;98840.06;6068051;23;20169;-88
2022/06/30 08:50:14;;;;;;;3.20;1.35;;;;;;;36.09;31.19;98837.78;6068647;23;20276;-88
2022/06/30 08:52:45;;;;;;;2.20;0.95;;;;;;;36.27;30.29;98838.31;6068240;23;20196;-88
2022/06/30 08:55:12;;;;;;;2.85;1.40;;;;;;;36.31;30.21;98835.91;6068474;23;20191;-88
2022/06/30 08:57:40;;;;;;;3.33;1.90;;;;;;;35.94;30.58;98837.56;6068406;23;20149;-88
2022/06/30 09:00:06;;;;;;;5.05;1.80;;;;;;;36.29;30.66;98843.53;6068431;23;20216;-89
2022/06/30 09:02:32;;;;;;;5.25;1.42;;;;;;;36.46;31.74;98838.84;6043331;23;20162;-88
2022/06/30 09:04:58;;;;;;;2.60;1.23;;;;;;;36.61;30.71;98833.56;6068386;23;20149;-88
2022/06/30 09:07:24;;;;;;;4.18;1.27;;;;;;;36.29;30.75;98846.28;6068606;23;20149;-88
2022/06/30 09:09:49;;;;;;;1.92;1.00;;;;;;;36.33;30.58;98840.03;6043233;23;20181;-89
2022/06/30 09:12:16;;;;;;;2.47;1.20;;;;;;;35.70;29.63;98842.38;6043287;23;20161;-88
2022/06/30 09:14:47;;;;;;;2.53;1.15;;;;;;;36.02;31.77;98837.16;6068590;23;20231;-88
2022/06/30 09:17:20;;;;;;;6.70;1.67;;;;;;;36.33;30.31;98833.75;6043242;23;20156;-88
2022/06/30 09:19:52;;;;;;;5.28;1.08;;;;;;;36.43;30.89;98831.16;6043248;23;20481;-88
2022/06/30 09:22:18;;;;;;;1.83;1.02;;;;;;;36.14;30.52;98829.69;6068955;23;20153;-88
2022/06/30 09:24:43;;;;;;;2.33;1.10;;;;;;;36.64;29.01;98824.88;6068269;23;20175;-89
2022/06/30 09:27:23;;;;;;;2.60;0.90;;;;;;;36.76;29.11;98828.31;6068286;23;20609;-89
2022/06/30 09:29:59;;;;;;;1.83;0.90;;;;;;;36.66;29.86;98821.91;6067461;23;20165;-89
2022/06/30 09:32:25;;;;;;;4.35;1.20;;;;;;;36.75;28.78;98823.91;6068564;23;20200;-88
2022/06/30 09:34:52;;;;;;;6.18;1.63;;;;;;;37.01;29.03;98818.72;6068909;23;20157;-88
2022/06/30 09:37:24;;;;;;;2.42;0.88;;;;;;;37.06;29.55;98824.25;6065210;23;20186;-89
2022/06/30 09:39:53;;;;;;;4.53;1.55;;;;;;;36.75;29.86;98821.19;6069305;23;20145;-88
2022/06/30 09:42:38;;;;;;;8.10;1.10;;;;;;;36.82;29.81;98812.78;6069125;23;20220;-89
2022/06/30 09:45:06;;;;;;;3.42;1.70;;;;;;;36.92;29.51;98810.97;6043601;23;20161;-90
2022/06/30 09:47:32;;;;;;;1.90;0.90;;;;;;;37.34;29.51;98813.03;6069043;23;20538;-89
2022/06/30 09:50:03;;;;;;;3.80;1.13;;;;;;;37.56;29.87;98800.09;6068247;23;20173;-88
2022/06/30 09:52:29;;;;;;;3.58;1.38;;;;;;;37.10;28.15;98811.72;6068467;23;20173;-88
2022/06/30 09:55:01;;;;;;;3.00;1.10;;;;;;;37.32;29.11;98804.25;6069321;23;20164;-88
2022/06/30 09:57:36;;;;;;;4.25;0.93;;;;;;;37.35;28.29;98809.19;6069128;23;20149;-87
2022/06/30 10:00:08;;;;;;;4.38;0.88;;;;;;;37.41;27.61;98806.28;6069033;23;20208;-89
2022/06/30 10:02:42;;;;;;;1.95;0.80;;;;;;;37.57;27.50;98815.44;6069810;23;20149;-89
2022/06/30 10:05:10;;;;;;;2.03;0.93;;;;;;;37.71;28.39;98811.13;6069130;23;20138;-88
2022/06/30 10:07:37;;;;;;;1.83;0.65;;;;;;;37.77;27.66;98804.63;6069585;23;20236;-88
2022/06/30 10:10:11;;;;;;;4.55;1.05;;;;;;;37.74;28.13;98802.41;6068799;23;20181;-88
2022/06/30 10:12:39;;;;;;;3.85;1.02;;;;;;;37.66;28.44;98805.63;6069290;23;20216;-88
2022/06/30 10:15:07;;;;;;;1.38;0.75;;;;;;;37.73;27.08;98795.31;6069199;23;20220;-89
2022/06/30 10:17:40;;;;;;;2.33;0.88;;;;;;;37.91;27.32;98792.16;6069320;23;20175;-88
2022/06/30 10:20:07;;;;;;;2.50;0.88;;;;;;;37.92;27.84;98798.47;6068800;23;20138;-89
2022/06/30 10:22:32;;;;;;;2.47;0.93;;;;;;;37.84;27.01;98796.97;6069374;23;20168;-89
2022/06/30 10:24:58;;;;;;;1.90;0.75;;;;;;;37.81;28.18;98786.59;6069251;23;20153;-89
2022/06/30 10:27:26;;;;;;;1.90;0.90;;;;;;;37.88;27.58;98798.16;6069848;23;20577;-89
2022/06/30 10:29:56;;;;;;;1.15;0.65;;;;;;;37.98;27.24;98795.47;6069161;23;20213;-89
2022/06/30 10:32:31;;;;;;;6.00;1.10;;;;;;;37.94;28.00;98797.09;6069485;23;20160;-89
2022/06/30 10:35:09;;;;;;;1.70;0.80;;;;;;;38.12;26.70;98796.66;6068909;23;20554;-88
2022/06/30 10:37:42;;;;;;;4.28;1.33;;;;;;;38.13;27.84;98787.31;6069979;23;20141;-89
2022/06/30 10:40:25;;;;;;;3.05;1.67;;;;;;;38.07;27.19;98793.06;6069234;23;20133;-89
2022/06/30 10:42:57;;;;;;;3.88;1.10;;;;;;;38.22;26.63;98782.16;6069576;23;20220;-88
2022/06/30 10:45:31;;;;;;;4.55;0.90;;;;;;;38.28;27.66;98780.28;6069441;23;20228;-88
2022/06/30 10:48:06;;;;;;;5.55;1.15;;;;;;;37.94;27.95;98775.22;6069616;23;20160;-89
2022/06/30 10:50:40;;;;;;;3.15;1.20;;;;;;;38.10;27.62;98774.16;6067395;23;20204;-89
2022/06/30 10:53:15;;;;;;;2.22;0.95;;;;;;;38.27;28.14;98770.41;6068866;23;20180;-89
2022/06/30 10:55:46;;;;;;;1.80;0.80;;;;;;;38.32;26.27;98756.75;6068812;23;20208;-88
2022/06/30 10:58:12;;;;;;;7.43;1.52;;;;;;;38.43;26.60;98777.63;6069247;23;20229;-89
2022/06/30 11:01:04;;;;;;;3.15;1.33;;;;;;;38.59;26.64;98762.88;6044081;23;20228;-89
2022/06/30 11:03:29;;;;;;;2.40;1.00;;;;;;;38.70;27.04;98767.28;6069161;23;20137;-89
2022/06/30 11:05:56;;;;;;;2.80;0.75;;;;;;;38.72;25.78;98765.09;6044249;23;20172;-89
2022/06/30 11:08:38;;;;;;;3.78;1.20;;;;;;;38.38;26.91;98758.44;6068863;23;20558;-89
2022/06/30 11:11:22;;;;;;;2.00;0.82;;;;;;;38.60;26.41;98750.81;6068674;23;20181;-88
2022/06/30 11:14:00;;;;;;;3.92;1.08;;;;;;;38.77;26.41;98751.44;6068774;23;20224;-89
2022/06/30 11:16:26;;;;;;;4.10;1.10;;;;;;;38.63;26.43;98753.00;6069315;23;20153;-89
2022/06/30 11:18:51;;;;;;;3.58;0.93;;;;;;;38.63;26.14;98739.31;6069232;23;20215;-89
2022/06/30 11:21:16;;;;;;;2.50;1.10;;;;;;;38.89;26.21;98738.25;6069285;23;20243;-88
2022/06/30 11:23:47;;;;;;;2.33;0.98;;;;;;;38.82;25.74;98731.41;6044011;23;20487;-88
2022/06/30 11:29:00;;;;;;;5.78;1.02;;;;;;;38.72;26.66;98732.19;6069152;23;20163;-89
2022/06/30 11:31:37;;;;;;;3.88;0.77;;;;;;;38.77;26.69;98724.03;6069187;23;20172;-89
2022/06/30 11:34:08;;;;;;;3.10;0.93;;;;;;;38.98;27.38;98725.69;6045461;23;20539;-88
2022/06/30 11:36:36;;;;;;;1.98;0.77;;;;;;;39.24;26.11;98729.25;6069511;23;20142;-88
2022/06/30 11:39:11;;;;;;;1.65;0.77;;;;;;;39.52;25.25;98727.84;6069018;23;20236;-89
2022/06/30 11:41:54;;;;;;;2.63;0.88;;;;;;;39.27;25.65;98728.72;6067702;23;20517;-88
2022/06/30 12:07:53;;;;;;;2.55;0.77;;;;;;;40.03;24.92;98721.13;5726516;23;20241;-89
2022/06/30 12:10:24;;;;;;;2.08;1.02;;;;;;;40.11;24.22;98712.34;6067454;23;20193;-89
2022/06/30 12:12:50;;;;;;;5.55;1.33;;;;;;;40.05;24.74;98718.13;6069539;23;20168;-89
2022/06/30 12:15:18;;;;;;;2.03;1.00;;;;;;;39.67;24.75;98716.88;6068603;23;20149;-88
2022/06/30 12:17:52;;;;;;;2.05;0.90;;;;;;;39.22;24.79;98721.31;6068737;23;20153;-88